LIEE

Cagliari/Elmas Airport

Airport
ICAO code
LIEE
IATA Code
CAG
Summary
ICAO Region
EUR
ICAO Territory
Location

Elmas, Sardinia

Serving
Cagliari
Elevation
13 ft
Coordinates
39° 15' 9" N , 9° 3' 18" E
KCC
Metar
Observation
LIEE 031920Z AUTO 33006KT 9999 NCD 09/07 Q1029
Station
Cagliari / Elmas
Date/Time
2023-02-03 19:20:00
Wind direction
330°
Wind speed
06 kts
Lowest cloud amount
no clouds detected
Temperature
9°C
Dew point
7°C
Humidity
87%
QNH
1029 hPa
Weather condition
n/a

Cagliari-Elmas Airport is an international airport located in the territory of Elmas, near Cagliari, on the island of Sardinia, Italy.

Climatology

Dry-summer subtropical ”Mediterranean" climate (Köppen climate classification Csa) - characterized by hot, dry summers and mild winters. During the summer, subtropical high pressure cells dominate, making rainfall unlikely except for the occasional thunderstorm. In the winter, periodic storms bring rain (snow at higher elevations).

Runways

Designator Length Width Surface Rops
14/32 2803 45 ASP Yes/Yes

Airport map

Aerial View

SKYbrary Partners:

Safety knowledge contributed by: